createdAt,value
2022-12-19T00:01:26.734Z,99186.56
2022-12-19T00:04:28.455Z,99182.34
2022-12-19T00:07:29.971Z,99177.63
2022-12-19T00:10:31.507Z,99181.25
2022-12-19T00:13:40.856Z,99183.09
2022-12-19T00:16:43.076Z,99170.03
2022-12-19T00:19:44.877Z,99161.69
2022-12-19T00:22:46.781Z,99166.09
2022-12-19T00:25:48.284Z,99165.31
2022-12-19T00:28:52.180Z,99161.28
2022-12-19T00:31:53.816Z,99154.75
2022-12-19T00:34:55.504Z,99157.41
2022-12-19T00:37:57.190Z,99155.13
2022-12-19T00:41:12.299Z,99149.31
2022-12-19T00:44:14.200Z,99146.16
2022-12-19T00:47:15.797Z,99145.34
2022-12-19T00:50:17.370Z,99138.63
2022-12-19T00:53:18.930Z,99134.78
2022-12-19T00:56:22.170Z,99146.13
2022-12-19T00:59:26.536Z,99145.34
2022-12-19T01:02:28.537Z,99141.16
2022-12-19T01:05:30.147Z,99145.72
2022-12-19T01:08:33.003Z,99142.28
2022-12-19T01:11:53.184Z,99136.38
2022-12-19T01:14:59.470Z,99136.69
2022-12-19T01:18:06.358Z,99136.69
2022-12-19T01:21:09.003Z,99132.47
2022-12-19T01:24:10.598Z,99128.53
2022-12-19T01:27:12.156Z,99126.91
2022-12-19T01:30:13.836Z,99129.84
2022-12-19T01:33:17.442Z,99122.94
2022-12-19T01:36:19.018Z,99118.09
2022-12-19T01:39:20.551Z,99125.38
2022-12-19T01:42:24.355Z,99106.72
2022-12-19T01:45:38.388Z,99119.75
2022-12-19T01:48:43.445Z,99103.63
2022-12-19T01:51:46.228Z,99104.84
2022-12-19T01:54:47.688Z,99108.59
2022-12-19T01:57:49.239Z,99113.09
2022-12-19T02:00:50.887Z,99102.88
2022-12-19T02:03:52.468Z,99097.81
2022-12-19T02:06:54.891Z,99086.72
2022-12-19T02:09:57.519Z,99082.72
2022-12-19T02:12:59.245Z,99088.59
2022-12-19T02:16:19.176Z,99096.53
2022-12-19T02:20:00.682Z,99076.06
2022-12-19T02:23:28.723Z,99076.06
2022-12-19T02:26:33.300Z,99079.72
2022-12-19T02:29:56.895Z,99083.25
2022-12-19T02:33:10.599Z,99083.34
2022-12-19T02:36:42.655Z,99087.59
2022-12-19T02:39:51.080Z,99077.59
2022-12-19T02:42:57.559Z,99085.50
2022-12-19T02:45:59.180Z,99092.53
2022-12-19T02:49:00.812Z,99095.19
2022-12-19T02:52:12.621Z,99102.22
2022-12-19T02:55:16.761Z,99076.69
2022-12-19T02:58:37.435Z,99091.56
2022-12-19T03:01:52.504Z,99096.88
2022-12-19T03:05:23.088Z,99090.94
2022-12-19T03:08:35.952Z,99098.94
2022-12-19T03:11:38.133Z,99087.97
2022-12-19T03:14:39.745Z,99085.41
2022-12-19T03:17:41.379Z,99089.09
2022-12-19T03:20:52.173Z,99087.63
2022-12-19T03:23:54.423Z,99084.59
2022-12-19T03:27:19.987Z,99078.88
2022-12-19T03:30:21.573Z,99065.31
2022-12-19T03:33:23.122Z,99063.78
2022-12-19T03:36:27.257Z,99059.66
2022-12-19T03:39:28.807Z,99055.41
2022-12-19T03:42:48.901Z,99054.88
2022-12-19T03:45:57.992Z,99054.13
2022-12-19T03:48:59.586Z,99055.09
2022-12-19T03:52:03.470Z,99052.69
2022-12-19T03:55:12.693Z,99045.88
2022-12-19T03:58:21.054Z,99039.94
2022-12-19T04:01:22.812Z,99041.78
2022-12-19T04:04:24.925Z,99053.13
2022-12-19T04:07:26.693Z,99042.88
2022-12-19T04:10:28.246Z,99051.34
2022-12-19T04:13:38.676Z,99059.94
2022-12-19T04:16:50.191Z,99051.50
2022-12-19T04:20:11.848Z,99052.47
2022-12-19T04:23:38.584Z,99059.19
2022-12-19T04:26:44.574Z,99053.41
2022-12-19T04:29:46.113Z,99039.56
2022-12-19T04:32:47.746Z,99049.16
2022-12-19T04:35:49.284Z,99046.47
2022-12-19T04:38:50.947Z,99049.09
2022-12-19T04:41:52.481Z,99042.28
2022-12-19T04:44:54.271Z,99038.19
2022-12-19T04:47:55.829Z,99046.09
2022-12-19T04:50:57.347Z,99046.81
2022-12-19T04:53:58.943Z,99038.34
2022-12-19T04:57:00.472Z,99039.34
2022-12-19T05:00:03.972Z,99034.09
2022-12-19T05:03:05.634Z,99037.69
2022-12-19T05:06:11.304Z,99039.56
2022-12-19T05:09:12.846Z,99036.13
2022-12-19T05:12:14.491Z,99029.25
2022-12-19T05:15:17.130Z,99028.31
2022-12-19T05:18:18.681Z,99026.63
2022-12-19T05:21:21.309Z,99025.88
2022-12-19T05:24:22.897Z,99019.06
2022-12-19T05:27:24.432Z,99020.91
2022-12-19T05:30:25.958Z,99019.06
2022-12-19T05:33:27.579Z,99009.50
2022-12-19T05:36:32.484Z,99019.06
2022-12-19T05:39:35.048Z,99016.59
2022-12-19T05:42:36.587Z,99021.78
2022-12-19T05:45:39.363Z,99024.50
2022-12-19T05:48:40.900Z,99016.19
2022-12-19T05:51:42.796Z,99018.63
2022-12-19T05:54:44.322Z,99024.56
2022-12-19T05:57:45.878Z,99017.84
2022-12-19T06:00:47.403Z,99026.41
2022-12-19T06:03:49.151Z,99023.69
2022-12-19T06:06:50.693Z,99023.91
2022-12-19T06:09:52.610Z,99019.81
2022-12-19T06:12:54.165Z,99024.94
2022-12-19T06:16:01.896Z,99021.50
2022-12-19T06:19:03.545Z,99015.63
2022-12-19T06:22:05.069Z,99031.91
2022-12-19T06:25:06.810Z,99029.84
2022-12-19T06:28:08.335Z,99035.19
2022-12-19T06:31:10.514Z,99024.78
2022-12-19T06:34:22.081Z,99024.13
2022-12-19T06:37:37.779Z,99017.19
2022-12-19T06:41:01.547Z,99012.03
2022-12-19T06:44:04.923Z,99006.91
2022-12-19T06:47:06.441Z,99010.63
2022-12-19T06:50:08.185Z,99008.66
2022-12-19T06:53:09.729Z,99012.03
2022-12-19T06:56:11.988Z,99009.38
2022-12-19T06:59:14.701Z,99003.38
2022-12-19T07:02:35.028Z,99005.13
2022-12-19T07:05:36.601Z,99008.50
2022-12-19T07:08:38.136Z,99006.75
2022-12-19T07:11:39.647Z,99008.50
2022-12-19T07:14:42.304Z,99016.41
2022-12-19T07:17:43.840Z,99024.31
2022-12-19T07:20:45.565Z,99028.53
2022-12-19T07:23:47.151Z,99025.75
2022-12-19T07:26:48.677Z,99027.66
2022-12-19T07:29:50.204Z,99031.91
2022-12-19T07:32:51.727Z,99036.28
2022-12-19T07:35:53.250Z,99037.31
2022-12-19T07:38:54.784Z,99044.34
2022-12-19T07:41:56.307Z,99047.84
2022-12-19T07:44:57.824Z,99042.72
2022-12-19T07:48:02.720Z,99039.47
2022-12-19T07:51:05.401Z,99040.28
2022-12-19T07:54:06.817Z,99043.06
2022-12-19T07:57:08.329Z,99056.00
2022-12-19T08:00:10.378Z,99060.47
2022-12-19T08:03:12.300Z,99068.88
2022-12-19T08:06:13.906Z,99065.50
2022-12-19T08:09:15.488Z,99067.50
2022-12-19T08:12:17.038Z,99064.84
2022-12-19T08:15:18.593Z,99052.38
2022-12-19T08:18:20.110Z,99048.47
2022-12-19T08:21:21.768Z,99048.63
2022-12-19T08:24:23.333Z,99047.03
2022-12-19T08:27:25.098Z,99037.06
2022-12-19T08:30:26.690Z,99048.53
2022-12-19T08:33:28.686Z,99036.78
2022-12-19T08:36:30.270Z,99035.19
2022-12-19T08:39:31.817Z,99028.50
2022-12-19T08:42:33.701Z,99030.09
2022-12-19T08:45:35.454Z,99009.75
2022-12-19T08:48:37.111Z,99020.38
2022-12-19T08:51:38.663Z,99014.78
2022-12-19T08:54:40.280Z,99017.34
2022-12-19T08:57:41.842Z,99003.78
2022-12-19T09:00:45.529Z,99012.56
2022-12-19T09:05:18.768Z,99010.38
2022-12-19T09:07:19.898Z,99020.50
2022-12-19T09:10:21.454Z,99020.22
2022-12-19T09:13:23.004Z,99002.09
2022-12-19T09:16:25.745Z,99015.97
2022-12-19T09:19:27.479Z,99006.53
2022-12-19T09:22:29.433Z,99007.44
2022-12-19T09:25:31.219Z,99004.50
2022-12-19T09:28:32.767Z,98997.19
2022-12-19T09:31:34.300Z,99009.31
2022-12-19T09:34:37.888Z,99009.13
2022-12-19T09:37:40.273Z,99003.34
2022-12-19T09:40:58.476Z,98992.69
2022-12-19T09:44:28.126Z,99003.91
2022-12-19T09:47:31.010Z,99005.53
2022-12-19T09:50:51.673Z,98992.91
2022-12-19T09:54:01.618Z,98983.78
2022-12-19T09:57:05.570Z,98978.56
2022-12-19T10:00:12.603Z,98987.16
2022-12-19T10:03:24.596Z,98977.00
2022-12-19T10:07:11.126Z,98988.91
2022-12-19T10:12:16.946Z,98976.31
2022-12-19T10:13:24.732Z,98971.78
2022-12-19T10:17:23.588Z,98969.34
2022-12-19T10:20:39.700Z,98972.22
2022-12-19T10:23:56.876Z,98970.75
2022-12-19T10:27:00.050Z,98956.44
2022-12-19T10:30:13.816Z,98954.06
2022-12-19T10:33:24.184Z,98950.19
2022-12-19T10:36:48.750Z,98963.00
2022-12-19T10:40:13.020Z,98967.94
2022-12-19T10:43:44.444Z,98973.63
2022-12-19T10:46:47.876Z,98965.63
2022-12-19T10:49:49.539Z,98972.34
2022-12-19T10:52:53.892Z,98982.75
2022-12-19T10:56:00.079Z,98990.34
2022-12-19T10:59:02.295Z,99006.91
2022-12-19T11:02:11.444Z,99009.50
2022-12-19T11:05:39.270Z,99050.94
2022-12-19T11:08:40.865Z,99028.88
2022-12-19T11:13:29.347Z,99018.91
2022-12-19T11:19:48.055Z,99003.47
2022-12-19T11:24:17.618Z,99004.88
2022-12-19T11:29:54.354Z,99000.88
2022-12-19T11:30:34.364Z,99007.88
2022-12-19T11:33:12.248Z,99014.03
2022-12-19T11:36:53.033Z,99006.34
2022-12-19T11:39:59.578Z,99004.31
2022-12-19T11:43:42.750Z,98981.31
2022-12-19T11:46:47.652Z,98984.88
2022-12-19T11:49:53.730Z,98965.44
2022-12-19T11:53:20.727Z,98963.31
2022-12-19T11:56:23.897Z,98960.38
2022-12-19T11:59:36.949Z,98949.44
2022-12-19T12:03:01.580Z,98936.88
2022-12-19T12:06:11.738Z,98927.22
2022-12-19T12:13:36.812Z,98918.44
2022-12-19T12:21:45.464Z,98911.78
2022-12-19T12:30:59.200Z,98906.63
2022-12-19T12:31:27.172Z,98903.41
2022-12-19T12:31:42.134Z,98875.81
2022-12-19T12:31:51.386Z,98877.00
2022-12-19T12:32:00.359Z,98886.69
2022-12-19T12:35:29.284Z,98864.53
2022-12-19T12:41:03.954Z,98865.75
2022-12-19T12:44:08.372Z,98872.16
2022-12-19T12:47:20.543Z,98863.97
2022-12-19T12:50:23.977Z,98862.88
2022-12-19T12:53:27.138Z,98858.91
2022-12-19T12:56:28.696Z,98857.22
2022-12-19T12:59:30.587Z,98862.06
2022-12-19T13:02:32.882Z,98859.53
2022-12-19T13:05:39.785Z,98847.56
2022-12-19T13:08:44.184Z,98853.25
2022-12-19T13:12:06.407Z,98854.50
2022-12-19T13:15:31.418Z,98845.03
2022-12-19T13:18:34.459Z,98851.00
2022-12-19T13:22:04.765Z,98854.25
2022-12-19T13:25:36.487Z,98848.84
2022-12-19T13:28:39.779Z,98852.97
2022-12-19T13:31:41.325Z,98841.25
2022-12-19T13:35:21.316Z,98837.84
2022-12-19T13:40:00.639Z,98836.63
2022-12-19T13:42:02.560Z,98838.41
2022-12-19T13:45:31.106Z,98848.97
2022-12-19T13:48:46.828Z,98854.09
2022-12-19T13:51:50.203Z,98835.81
2022-12-19T13:54:55.368Z,98850.28
2022-12-19T13:57:57.182Z,98846.19
2022-12-19T14:01:02.671Z,98853.53
2022-12-19T14:04:07.729Z,98842.44
2022-12-19T14:07:36.083Z,98853.81
2022-12-19T14:11:33.170Z,98847.47
2022-12-19T14:14:27.668Z,98843.13
2022-12-19T14:17:29.886Z,98844.34
2022-12-19T14:22:02.813Z,98854.84
2022-12-19T14:24:12.596Z,98850.44
2022-12-19T14:28:26.361Z,98836.81
2022-12-19T14:30:37.281Z,98839.59
2022-12-19T14:33:58.887Z,98843.25
2022-12-19T14:37:04.201Z,98848.88
2022-12-19T14:40:18.294Z,98836.34
2022-12-19T14:44:00.059Z,98840.78
2022-12-19T14:54:04.231Z,98829.56
2022-12-19T14:54:24.626Z,98828.25
2022-12-19T14:58:52.271Z,98822.75
2022-12-19T15:01:09.149Z,98830.91
2022-12-19T15:04:53.009Z,98827.06
2022-12-19T15:07:41.433Z,98822.78
2022-12-19T15:11:08.247Z,98821.94
2022-12-19T15:14:53.787Z,98825.94
2022-12-19T15:17:26.870Z,98827.44
2022-12-19T15:20:33.699Z,98824.31
2022-12-19T15:23:35.596Z,98840.69
2022-12-19T15:26:47.070Z,98831.84
2022-12-19T15:29:49.141Z,98821.00
2022-12-19T15:32:50.740Z,98819.56
2022-12-19T15:35:52.335Z,98807.78
2022-12-19T15:38:54.041Z,98806.56
2022-12-19T15:41:56.892Z,98818.22
2022-12-19T15:45:00.269Z,98808.47
2022-12-19T15:48:01.962Z,98817.66
2022-12-19T15:51:03.579Z,98805.69
2022-12-19T15:57:36.099Z,98812.09
2022-12-19T16:00:37.736Z,98804.25
2022-12-19T16:03:39.533Z,98802.50
2022-12-19T16:06:41.259Z,98802.53
2022-12-19T16:09:43.004Z,98793.00
2022-12-19T16:12:55.610Z,98795.06
2022-12-19T16:15:57.854Z,98804.94
2022-12-19T16:18:59.543Z,98780.66
2022-12-19T16:22:01.113Z,98781.53
2022-12-19T16:25:02.672Z,98789.00
2022-12-19T16:28:05.039Z,98803.69
2022-12-19T16:31:15.970Z,98799.13
2022-12-19T16:34:19.599Z,98791.94
2022-12-19T16:37:21.183Z,98795.94
2022-12-19T16:40:25.635Z,98797.88
2022-12-19T16:43:30.204Z,98791.81
2022-12-19T16:46:32.527Z,98792.41
2022-12-19T16:49:34.266Z,98790.13
2022-12-19T16:52:42.212Z,98797.56
2022-12-19T16:55:44.326Z,98780.94
2022-12-19T16:58:45.949Z,98803.66
2022-12-19T17:01:47.948Z,98807.69
2022-12-19T17:04:53.975Z,98811.03
2022-12-19T17:07:56.103Z,98815.66
2022-12-19T17:10:57.913Z,98811.56
2022-12-19T17:14:04.766Z,98812.31
2022-12-19T17:17:06.499Z,98814.66
2022-12-19T17:20:13.796Z,98818.47
2022-12-19T17:23:22.854Z,98825.31
2022-12-19T17:26:24.575Z,98821.63
2022-12-19T17:29:26.189Z,98823.09
2022-12-19T17:32:27.906Z,98817.28
2022-12-19T17:35:31.920Z,98809.50
2022-12-19T17:38:33.650Z,98808.63
2022-12-19T17:41:35.290Z,98805.00
2022-12-19T17:44:36.896Z,98809.44
2022-12-19T17:47:38.656Z,98810.88
2022-12-19T17:50:41.039Z,98819.19
2022-12-19T17:53:42.742Z,98816.28
2022-12-19T17:56:44.806Z,98811.25
2022-12-19T17:59:46.899Z,98811.50
2022-12-19T18:02:49.345Z,98817.50
2022-12-19T18:05:52.665Z,98807.84
2022-12-19T18:08:54.357Z,98807.16
2022-12-19T18:11:55.996Z,98800.09
2022-12-19T18:14:57.628Z,98801.91
2022-12-19T18:18:00.079Z,98793.50
2022-12-19T18:21:01.997Z,98797.50
2022-12-19T18:24:04.043Z,98784.53
2022-12-19T18:27:05.789Z,98801.47
2022-12-19T18:30:10.283Z,98805.63
2022-12-19T18:33:20.509Z,98802.06
2022-12-19T18:36:26.668Z,98805.34
2022-12-19T18:39:29.053Z,98790.66
2022-12-19T18:42:30.605Z,98794.09
2022-12-19T18:45:37.300Z,98803.56
2022-12-19T18:48:38.945Z,98795.56
2022-12-19T18:51:40.604Z,98797.19
2022-12-19T18:54:42.307Z,98787.75
2022-12-19T18:57:48.283Z,98804.84
2022-12-19T19:00:54.165Z,98810.72
2022-12-19T19:03:59.461Z,98803.03
2022-12-19T19:07:01.228Z,98801.50
2022-12-19T19:10:06.459Z,98805.91
2022-12-19T19:13:10.373Z,98805.91
2022-12-19T19:16:17.760Z,98804.94
2022-12-19T19:19:19.634Z,98806.22
2022-12-19T19:22:23.730Z,98800.13
2022-12-19T19:25:25.509Z,98800.25
2022-12-19T19:28:27.411Z,98804.69
2022-12-19T19:31:30.453Z,98803.50
2022-12-19T19:34:32.839Z,98799.38
2022-12-19T19:37:34.958Z,98803.50
2022-12-19T19:40:37.139Z,98794.94
2022-12-19T19:43:38.876Z,98795.75
2022-12-19T19:46:40.750Z,98794.75
2022-12-19T19:49:42.780Z,98800.81
2022-12-19T19:52:44.632Z,98796.50
2022-12-19T19:55:55.997Z,98792.88
2022-12-19T19:58:59.835Z,98802.16
2022-12-19T20:02:01.683Z,98792.09
2022-12-19T20:05:03.865Z,98797.31
2022-12-19T20:08:06.658Z,98785.22
2022-12-19T20:11:09.000Z,98795.63
2022-12-19T20:14:10.994Z,98790.34
2022-12-19T20:17:16.108Z,98781.91
2022-12-19T20:20:17.897Z,98783.72
2022-12-19T20:23:22.602Z,98791.22
2022-12-19T20:26:24.416Z,98784.91
2022-12-19T20:29:32.190Z,98790.44
2022-12-19T20:32:34.027Z,98794.88
2022-12-19T20:35:36.942Z,98797.31
2022-12-19T20:38:38.846Z,98795.44
2022-12-19T20:41:40.656Z,98799.63
2022-12-19T20:44:45.782Z,98802.16
2022-12-19T20:47:48.748Z,98803.84
2022-12-19T20:50:57.099Z,98803.16
2022-12-19T20:53:58.965Z,98803.66
2022-12-19T20:57:00.710Z,98803.84
2022-12-19T21:00:04.255Z,98807.16
2022-12-19T21:06:27.975Z,98798.53
2022-12-19T21:09:32.321Z,98796.66
2022-12-19T21:12:33.983Z,98792.94
2022-12-19T21:15:35.703Z,98787.81
2022-12-19T21:18:40.490Z,98792.94
2022-12-19T21:21:42.251Z,98791.50
2022-12-19T21:24:43.828Z,98782.81
2022-12-19T21:27:46.805Z,98796.47
2022-12-19T21:31:01.463Z,98800.63
2022-12-19T21:34:03.185Z,98795.72
2022-12-19T21:37:04.779Z,98800.78
2022-12-19T21:40:08.981Z,98797.47
2022-12-19T21:43:12.306Z,98808.75
2022-12-19T21:46:14.784Z,98801.72
2022-12-19T21:49:16.454Z,98792.94
2022-12-19T21:52:18.083Z,98796.66
2022-12-19T21:55:19.745Z,98806.22
2022-12-19T21:58:21.469Z,98800.97
2022-12-19T22:01:23.378Z,98797.88
2022-12-19T22:04:27.498Z,98803.78
2022-12-19T22:07:29.292Z,98790.13
2022-12-19T22:10:30.864Z,98793.53
2022-12-19T22:13:32.389Z,98780.94
2022-12-19T22:16:34.239Z,98785.22
2022-12-19T22:19:35.831Z,98788.69
2022-12-19T22:22:37.486Z,98797.16
2022-12-19T22:25:39.028Z,98794.59
2022-12-19T22:28:42.547Z,98790.09
2022-12-19T22:31:44.423Z,98785.75
2022-12-19T22:34:48.001Z,98796.84
2022-12-19T22:37:49.686Z,98800.41
2022-12-19T22:40:51.422Z,98784.00
2022-12-19T22:43:53.396Z,98787.38
2022-12-19T22:46:55.000Z,98797.19
2022-12-19T22:49:56.556Z,98785.13
2022-12-19T22:52:58.107Z,98794.91
2022-12-19T22:56:06.358Z,98783.75
2022-12-19T22:59:08.191Z,98785.22
2022-12-19T23:02:09.866Z,98784.19
2022-12-19T23:05:11.566Z,98790.31
2022-12-19T23:08:13.087Z,98791.69
2022-12-19T23:11:17.107Z,98793.81
2022-12-19T23:14:19.178Z,98794.31
2022-12-19T23:17:20.690Z,98789.00
2022-12-19T23:20:22.262Z,98788.94
2022-12-19T23:23:23.814Z,98795.91
2022-12-19T23:26:30.595Z,98788.91
2022-12-19T23:29:32.188Z,98788.22
2022-12-19T23:32:33.717Z,98782.25
2022-12-19T23:35:35.259Z,98787.31
2022-12-19T23:38:36.826Z,98770.97
2022-12-19T23:41:38.506Z,98771.41
2022-12-19T23:44:40.199Z,98779.22
2022-12-19T23:47:41.712Z,98772.34
2022-12-19T23:50:43.258Z,98761.34
2022-12-19T23:53:45.178Z,98756.38
2022-12-19T23:56:46.714Z,98748.00
2022-12-19T23:59:48.605Z,98735.25
